Time;durP1;ratioP1;P1;durP2;ratioP2;P2;SDS_P1;SDS_P2;PMS_P1;PMS_P2;Temp;Humidity;BMP_temperature;BMP_pressure;BME280_temperature;BME280_humidity;BME280_pressure;Samples;Min_cycle;Max_cycle;Signal;HPM_P1;HPM_P2
2023/06/08 00:01:12;;;;;;;0.70;0.50;;;;;;;18.80;98.61;95305.16;5112879;28;20463;-68
2023/06/08 00:03:43;;;;;;;0.77;0.77;;;;;;;18.61;98.54;95306.63;5113013;28;20427;-67
2023/06/08 00:06:15;;;;;;;0.73;0.60;;;;;;;18.48;96.73;95311.06;5112195;28;20518;-66
2023/06/08 00:08:44;;;;;;;0.40;0.30;;;;;;;18.67;100.00;95316.09;5112467;28;20543;-67
2023/06/08 00:11:12;;;;;;;0.50;0.40;;;;;;;18.21;98.87;95300.69;5112428;28;20821;-67
2023/06/08 00:13:40;;;;;;;0.40;0.27;;;;;;;18.61;99.16;95298.56;5113010;28;20432;-66
2023/06/08 00:16:09;;;;;;;0.40;0.20;;;;;;;18.78;96.72;95293.94;5112798;28;20436;-67
2023/06/08 00:18:39;;;;;;;0.40;0.30;;;;;;;18.89;97.98;95299.75;5112512;28;20505;-65
2023/06/08 00:21:08;;;;;;;0.50;0.30;;;;;;;19.05;95.98;95294.66;5112118;28;20438;-66
2023/06/08 00:23:36;;;;;;;0.40;0.30;;;;;;;19.17;94.27;95292.06;5112130;28;20443;-65
2023/06/08 00:26:05;;;;;;;1.13;0.30;;;;;;;18.96;93.88;95300.03;5112539;28;20435;-65
2023/06/08 00:28:34;;;;;;;0.40;0.30;;;;;;;18.99;94.65;95299.41;5101787;28;21002;-65
2023/06/08 00:31:02;;;;;;;0.50;0.30;;;;;;;18.80;97.20;95291.72;5109407;28;20440;-65
2023/06/08 00:33:31;;;;;;;0.63;0.50;;;;;;;18.72;96.70;95281.03;5112411;28;20438;-65
2023/06/08 00:36:00;;;;;;;0.40;0.30;;;;;;;18.62;97.07;95294.78;5112016;28;20467;-65
2023/06/08 00:38:29;;;;;;;0.40;0.40;;;;;;;18.70;97.27;95288.59;5112520;28;20432;-65
2023/06/08 00:40:57;;;;;;;0.40;0.30;;;;;;;18.63;95.41;95290.97;5111872;28;20877;-65
2023/06/08 00:43:25;;;;;;;0.80;0.70;;;;;;;18.80;95.31;95282.88;5112266;28;20439;-65
2023/06/08 00:45:56;;;;;;;2.93;0.80;;;;;;;18.41;96.32;95286.59;5112038;28;20431;-65
2023/06/08 00:48:25;;;;;;;0.50;0.40;;;;;;;18.05;98.37;95281.59;5112054;28;21001;-65
2023/06/08 00:50:56;;;;;;;0.60;0.30;;;;;;;17.94;100.00;95287.56;5112004;28;20448;-65
2023/06/08 00:53:28;;;;;;;0.50;0.30;;;;;;;18.28;100.00;95285.66;5112356;28;20443;-65
2023/06/08 00:55:57;;;;;;;0.40;0.30;;;;;;;18.27;98.11;95256.47;5111963;28;21081;-65
2023/06/08 00:58:25;;;;;;;1.23;0.53;;;;;;;18.06;100.00;95280.50;5111951;28;20439;-65
2023/06/08 01:00:59;;;;;;;0.70;0.40;;;;;;;18.24;100.00;95278.59;5112002;28;20436;-65
2023/06/08 01:03:35;;;;;;;2.00;0.60;;;;;;;18.05;100.00;95283.47;5111650;28;20522;-65
2023/06/08 01:06:08;;;;;;;0.70;0.40;;;;;;;17.82;100.00;95282.84;5112538;28;20496;-65
2023/06/08 01:08:52;;;;;;;3.13;0.50;;;;;;;17.90;100.00;95282.06;5131768;28;20532;-64
2023/06/08 01:11:32;;;;;;;0.50;0.30;;;;;;;17.84;99.72;95285.19;5121483;28;21152;-65
2023/06/08 01:14:13;;;;;;;0.60;0.40;;;;;;;17.59;100.00;95289.44;5111845;28;20496;-64
2023/06/08 01:16:49;;;;;;;0.50;0.50;;;;;;;17.83;100.00;95275.59;5086345;28;20475;-64
2023/06/08 01:19:33;;;;;;;0.40;0.40;;;;;;;17.86;100.00;95273.06;5111415;28;20442;-64
2023/06/08 01:22:11;;;;;;;0.60;0.40;;;;;;;17.96;100.00;95277.34;5111802;28;20526;-64
2023/06/08 01:24:49;;;;;;;0.77;0.40;;;;;;;18.13;100.00;95282.69;5111430;28;20441;-65
2023/06/08 01:27:19;;;;;;;0.40;0.27;;;;;;;18.18;98.54;95274.47;5111901;28;20440;-65
2023/06/08 01:29:48;;;;;;;0.40;0.20;;;;;;;18.29;95.00;95286.47;5085291;28;20487;-64
2023/06/08 01:32:16;;;;;;;0.90;0.40;;;;;;;17.64;100.00;95295.44;5111471;28;20498;-64
2023/06/08 01:34:45;;;;;;;0.40;0.20;;;;;;;17.63;100.00;95295.78;5112363;28;20436;-64
2023/06/08 01:37:27;;;;;;;0.60;0.47;;;;;;;17.30;100.00;95297.25;5115689;28;20443;-63
2023/06/08 01:40:01;;;;;;;0.40;0.30;;;;;;;17.77;100.00;95291.84;5115580;28;20446;-63
2023/06/08 01:42:31;;;;;;;0.40;0.30;;;;;;;17.68;100.00;95290.28;5115471;28;20427;-63
2023/06/08 01:45:06;;;;;;;0.40;0.30;;;;;;;17.58;100.00;95291.34;5116024;28;20525;-63
2023/06/08 01:47:39;;;;;;;0.40;0.30;;;;;;;17.93;100.00;95299.41;5115731;28;20427;-63
2023/06/08 01:50:10;;;;;;;0.60;0.50;;;;;;;17.68;100.00;95299.06;5115441;28;20532;-63
2023/06/08 01:52:39;;;;;;;0.40;0.20;;;;;;;17.34;100.00;95274.88;5114794;28;20436;-63
2023/06/08 01:55:16;;;;;;;0.50;0.30;;;;;;;17.29;100.00;95301.81;5114915;28;20472;-62
2023/06/08 01:57:45;;;;;;;0.43;0.27;;;;;;;17.00;100.00;95237.31;5115148;28;20488;-63
2023/06/08 02:00:15;;;;;;;0.40;0.30;;;;;;;17.70;100.00;95291.53;5114906;27;20523;-63
2023/06/08 02:02:44;;;;;;;0.40;0.30;;;;;;;17.84;100.00;95290.56;5114995;28;20477;-63
2023/06/08 02:05:14;;;;;;;0.53;0.37;;;;;;;17.80;100.00;95292.31;5114922;28;20435;-63
2023/06/08 02:07:43;;;;;;;0.50;0.40;;;;;;;16.85;100.00;95246.53;5114709;28;20442;-62
2023/06/08 02:10:13;;;;;;;1.17;1.17;;;;;;;16.42;100.00;95160.72;5114859;28;20471;-63
2023/06/08 02:12:43;;;;;;;0.50;0.30;;;;;;;17.46;100.00;95288.44;5114659;28;20439;-62
2023/06/08 02:15:11;;;;;;;0.73;0.73;;;;;;;17.37;100.00;95287.66;5115030;28;20467;-63
2023/06/08 02:17:41;;;;;;;0.40;0.20;;;;;;;17.44;100.00;95292.56;5114251;28;20436;-62
2023/06/08 02:20:10;;;;;;;0.40;0.30;;;;;;;17.15;100.00;95291.22;5115151;28;20446;-62
2023/06/08 02:22:39;;;;;;;0.50;0.30;;;;;;;17.29;100.00;95295.66;5114480;28;20440;-62
2023/06/08 02:25:09;;;;;;;0.40;0.30;;;;;;;17.26;100.00;95290.94;5105709;28;20601;-62
2023/06/08 02:27:37;;;;;;;0.60;0.33;;;;;;;16.93;100.00;95293.19;5110834;28;20962;-62
2023/06/08 02:30:09;;;;;;;3.43;0.53;;;;;;;17.12;100.00;95294.53;5114489;28;20526;-62
2023/06/08 02:32:41;;;;;;;0.40;0.30;;;;;;;17.11;100.00;95290.28;5114627;28;20824;-62
2023/06/08 02:35:10;;;;;;;0.40;0.30;;;;;;;17.14;100.00;95283.50;5114800;28;20838;-62
2023/06/08 02:37:39;;;;;;;0.50;0.30;;;;;;;17.37;100.00;95282.31;5113911;28;20925;-62
2023/06/08 02:40:09;;;;;;;0.63;0.40;;;;;;;17.50;100.00;95297.47;5114529;28;20439;-62
2023/06/08 02:42:37;;;;;;;0.40;0.30;;;;;;;17.43;100.00;95299.03;5113972;28;20535;-62
2023/06/08 02:45:08;;;;;;;0.83;0.30;;;;;;;17.07;100.00;95299.25;5113610;28;20485;-62
2023/06/08 02:47:36;;;;;;;0.47;0.30;;;;;;;16.75;100.00;95289.66;5113132;28;20932;-61
2023/06/08 02:50:05;;;;;;;1.23;0.60;;;;;;;17.11;100.00;95310.91;5114207;28;20479;-62
2023/06/08 02:52:34;;;;;;;0.67;0.50;;;;;;;16.83;100.00;95314.88;5114197;28;20479;-65
2023/06/08 02:55:04;;;;;;;0.50;0.30;;;;;;;16.61;100.00;95312.25;5114043;28;20856;-64
2023/06/08 02:57:33;;;;;;;0.50;0.30;;;;;;;16.77;100.00;95310.78;5114117;28;20488;-63
2023/06/08 03:00:03;;;;;;;0.50;0.37;;;;;;;16.48;100.00;95284.44;5113915;28;20435;-65
2023/06/08 03:02:33;;;;;;;0.57;0.30;;;;;;;16.55;100.00;95308.13;5114265;28;21024;-64
2023/06/08 03:05:03;;;;;;;0.60;0.30;;;;;;;16.28;100.00;95283.09;5114046;28;21008;-64
2023/06/08 03:07:33;;;;;;;0.40;0.30;;;;;;;16.42;100.00;95304.38;5114572;28;20508;-64
2023/06/08 03:10:03;;;;;;;0.40;0.30;;;;;;;16.18;100.00;95303.94;5113222;28;20524;-63
2023/06/08 03:12:32;;;;;;;0.50;0.30;;;;;;;16.49;100.00;95321.59;5113847;28;20439;-63
2023/06/08 03:15:00;;;;;;;0.40;0.30;;;;;;;16.89;100.00;95319.00;5113741;28;20439;-63
2023/06/08 03:17:28;;;;;;;0.40;0.30;;;;;;;16.82;100.00;95316.78;5126335;28;20485;-64
2023/06/08 03:19:59;;;;;;;0.80;0.70;;;;;;;17.08;100.00;95316.88;5117002;28;20961;-63
2023/06/08 03:22:29;;;;;;;0.40;0.30;;;;;;;17.20;100.00;95311.72;5113384;28;20448;-62
2023/06/08 03:25:00;;;;;;;0.70;0.60;;;;;;;17.14;100.00;95315.63;5113554;28;20435;-54
2023/06/08 03:27:28;;;;;;;0.93;0.93;;;;;;;17.38;100.00;95312.56;5113275;28;20442;-53
2023/06/08 03:29:57;;;;;;;0.40;0.30;;;;;;;17.75;100.00;95315.50;5112616;28;20578;-54
2023/06/08 03:32:25;;;;;;;4.00;0.40;;;;;;;17.82;100.00;95314.22;5113206;28;20442;-54
2023/06/08 03:34:54;;;;;;;0.80;0.43;;;;;;;17.86;100.00;95320.56;5113406;28;20440;-54
2023/06/08 03:37:23;;;;;;;0.40;0.30;;;;;;;18.02;100.00;95319.75;5112794;28;20471;-54
2023/06/08 03:39:52;;;;;;;0.73;0.60;;;;;;;18.06;100.00;95314.56;5113414;28;20467;-54
2023/06/08 03:42:20;;;;;;;0.63;0.50;;;;;;;18.12;100.00;95315.97;5112951;28;20431;-54
2023/06/08 03:44:48;;;;;;;0.50;0.40;;;;;;;18.23;100.00;95306.50;5113461;28;20434;-56
2023/06/08 03:47:18;;;;;;;0.50;0.37;;;;;;;18.32;100.00;95307.28;5113368;28;20515;-54
2023/06/08 03:49:46;;;;;;;0.50;0.40;;;;;;;18.44;100.00;95312.00;5113001;28;20484;-55
2023/06/08 03:52:15;;;;;;;0.40;0.30;;;;;;;18.51;100.00;95315.81;5113209;28;20436;-55
2023/06/08 03:54:45;;;;;;;0.63;0.53;;;;;;;18.34;100.00;95315.81;5112649;28;20954;-54
2023/06/08 03:57:13;;;;;;;0.50;0.40;;;;;;;18.53;100.00;95326.22;5112902;28;20443;-54
2023/06/08 03:59:42;;;;;;;1.00;0.63;;;;;;;18.29;100.00;95324.03;5111554;28;20653;-55
2023/06/08 04:02:10;;;;;;;0.50;0.33;;;;;;;18.49;100.00;95323.41;5112767;28;20436;-55
2023/06/08 04:04:39;;;;;;;0.40;0.30;;;;;;;18.28;100.00;95322.44;5112706;28;20522;-54
2023/06/08 04:07:07;;;;;;;0.50;0.30;;;;;;;18.42;100.00;95326.53;5113107;28;20435;-54
2023/06/08 04:09:36;;;;;;;0.40;0.30;;;;;;;18.42;100.00;95302.38;5112068;28;20547;-55
2023/06/08 04:12:07;;;;;;;0.57;0.53;;;;;;;18.59;100.00;95328.44;5112792;28;20435;-55
2023/06/08 04:14:35;;;;;;;0.47;0.30;;;;;;;18.73;100.00;95323.66;5112277;28;20483;-55
2023/06/08 04:17:04;;;;;;;0.40;0.40;;;;;;;18.72;100.00;95319.38;5112484;28;20508;-55
2023/06/08 04:19:32;;;;;;;0.47;0.47;;;;;;;18.77;100.00;95323.81;5112143;28;20442;-55
2023/06/08 04:22:04;;;;;;;0.50;0.33;;;;;;;18.98;100.00;95319.31;5112496;28;20439;-55
2023/06/08 04:24:35;;;;;;;0.90;0.40;;;;;;;18.91;100.00;95324.38;5112568;28;20442;-55
2023/06/08 04:27:05;;;;;;;0.60;0.50;;;;;;;19.03;100.00;95329.88;5112040;28;20493;-55
2023/06/08 04:29:34;;;;;;;0.70;0.70;;;;;;;19.13;100.00;95326.84;5111916;28;20873;-55
2023/06/08 04:32:03;;;;;;;0.50;0.40;;;;;;;19.22;100.00;95332.97;5112100;28;20451;-55
2023/06/08 04:34:33;;;;;;;0.60;0.30;;;;;;;19.16;100.00;95334.25;5111478;28;20436;-56
2023/06/08 04:37:01;;;;;;;0.63;0.33;;;;;;;19.24;100.00;95329.94;5112117;28;20445;-56
2023/06/08 04:39:30;;;;;;;0.50;0.50;;;;;;;19.33;100.00;95333.38;5085177;28;20518;-56
2023/06/08 04:41:58;;;;;;;0.50;0.50;;;;;;;19.31;100.00;95338.28;5111590;28;20959;-56
2023/06/08 04:44:31;;;;;;;0.40;0.30;;;;;;;18.94;99.37;95337.19;5112052;28;20927;-56
2023/06/08 04:47:02;;;;;;;0.40;0.27;;;;;;;19.44;100.00;95329.25;5111676;28;20810;-56
2023/06/08 04:49:32;;;;;;;0.43;0.30;;;;;;;19.48;100.00;95327.50;5112213;28;20501;-56
2023/06/08 04:52:01;;;;;;;2.20;0.50;;;;;;;19.58;100.00;95327.91;5112137;28;20440;-56
2023/06/08 04:54:30;;;;;;;0.70;0.70;;;;;;;19.85;100.00;95332.00;5111691;28;20485;-56
2023/06/08 04:57:00;;;;;;;0.50;0.33;;;;;;;19.77;91.47;95319.41;5111707;28;20979;-62
2023/06/08 04:59:29;;;;;;;0.40;0.20;;;;;;;19.65;89.79;95322.03;5112088;28;20437;-61
2023/06/08 05:01:57;;;;;;;0.60;0.40;;;;;;;19.87;89.65;95324.41;5111658;28;20435;-61
2023/06/08 05:04:27;;;;;;;0.40;0.30;;;;;;;19.89;87.42;95316.00;5112217;28;20451;-61
2023/06/08 05:06:55;;;;;;;0.60;0.30;;;;;;;19.67;86.38;95305.56;5111649;28;20986;-60
2023/06/08 05:09:24;;;;;;;0.80;0.80;;;;;;;19.50;90.31;95319.91;5112208;28;20439;-61
2023/06/08 05:11:52;;;;;;;0.50;0.30;;;;;;;19.32;96.17;95316.47;5115329;28;20536;-61
2023/06/08 05:14:20;;;;;;;0.40;0.30;;;;;;;19.20;95.38;95323.66;5116160;28;20488;-62
2023/06/08 05:16:49;;;;;;;0.50;0.40;;;;;;;19.08;97.58;95326.22;5115887;28;20423;-62
2023/06/08 05:19:17;;;;;;;0.70;0.70;;;;;;;19.35;96.00;95320.44;5116138;28;20427;-62
2023/06/08 05:21:47;;;;;;;0.77;0.77;;;;;;;19.71;93.65;95318.00;5115790;28;20942;-61
2023/06/08 05:24:15;;;;;;;2.60;1.03;;;;;;;20.29;90.07;95314.44;5115335;28;20439;-61
2023/06/08 05:26:44;;;;;;;0.73;0.73;;;;;;;20.12;89.06;95304.59;5115619;28;20534;-61
2023/06/08 05:29:12;;;;;;;1.97;1.17;;;;;;;19.70;89.30;95313.75;5115364;28;20464;-61
2023/06/08 05:31:41;;;;;;;1.27;1.17;;;;;;;19.67;90.92;95313.63;5115805;28;20551;-61
2023/06/08 05:34:09;;;;;;;0.77;0.40;;;;;;;20.36;88.42;95306.63;5115262;28;20471;-61
2023/06/08 05:36:38;;;;;;;0.50;0.40;;;;;;;20.69;88.23;95296.63;5115887;28;20442;-61
2023/06/08 05:39:07;;;;;;;0.87;0.87;;;;;;;20.22;86.74;95306.88;5115855;28;20534;-61
2023/06/08 05:41:36;;;;;;;0.50;0.50;;;;;;;20.52;85.59;95307.56;5115489;28;20488;-60
2023/06/08 05:44:04;;;;;;;1.27;1.07;;;;;;;20.38;86.33;95308.97;5115655;28;20458;-61
2023/06/08 05:46:33;;;;;;;2.17;1.77;;;;;;;20.16;87.61;95305.47;5115286;28;20493;-60
2023/06/08 05:49:01;;;;;;;8.00;3.10;;;;;;;20.09;91.60;95310.63;5115428;28;20479;-61
2023/06/08 05:51:29;;;;;;;0.50;0.43;;;;;;;20.62;89.00;95300.97;5115676;28;20467;-60
2023/06/08 05:53:58;;;;;;;0.70;0.70;;;;;;;20.69;86.08;95303.94;5114385;28;20435;-60
2023/06/08 05:56:28;;;;;;;0.80;0.80;;;;;;;20.20;87.15;95298.34;5115018;28;20436;-60
2023/06/08 05:58:56;;;;;;;0.40;0.40;;;;;;;20.83;87.76;95290.94;5114895;28;21035;-60
2023/06/08 06:01:24;;;;;;;0.73;0.70;;;;;;;21.67;84.86;95294.78;5114611;28;20870;-60
2023/06/08 06:03:52;;;;;;;0.63;0.63;;;;;;;21.10;83.68;95301.09;5114262;28;20439;-60
2023/06/08 06:06:21;;;;;;;0.50;0.40;;;;;;;20.92;84.47;95291.63;5114716;28;20501;-60
2023/06/08 06:08:50;;;;;;;1.13;1.03;;;;;;;20.92;85.19;95294.31;5114660;28;20496;-60
2023/06/08 06:11:18;;;;;;;2.10;0.63;;;;;;;21.83;83.14;95298.38;5114393;28;20524;-60
2023/06/08 06:13:48;;;;;;;0.80;0.80;;;;;;;21.75;79.91;95288.50;5114832;28;21012;-60
2023/06/08 06:16:16;;;;;;;0.83;0.83;;;;;;;21.88;80.26;95288.13;5114575;28;20477;-60
2023/06/08 06:18:46;;;;;;;3.67;0.90;;;;;;;22.25;78.64;95288.03;5114696;28;20442;-60
2023/06/08 06:21:15;;;;;;;1.43;1.33;;;;;;;22.22;78.17;95288.72;5113710;28;20431;-59
2023/06/08 06:23:44;;;;;;;2.20;0.93;;;;;;;22.19;76.92;95282.09;5113922;28;20443;-59
2023/06/08 06:26:13;;;;;;;0.60;0.60;;;;;;;22.35;74.74;95280.25;5114568;28;20432;-59
2023/06/08 06:28:41;;;;;;;0.40;0.30;;;;;;;23.03;74.64;95278.19;5114425;28;20524;-59
2023/06/08 06:31:11;;;;;;;1.43;0.70;;;;;;;23.05;71.77;95272.41;5109520;28;20476;-59
2023/06/08 06:33:39;;;;;;;0.50;0.40;;;;;;;23.12;73.61;95275.31;5106660;28;20920;-58
2023/06/08 06:36:07;;;;;;;0.90;0.90;;;;;;;22.85;73.00;95276.94;5113923;28;20436;-59
2023/06/08 06:38:36;;;;;;;1.70;0.80;;;;;;;22.53;74.09;95278.00;5114270;28;20467;-59
2023/06/08 06:41:04;;;;;;;0.60;0.60;;;;;;;22.69;75.67;95276.16;5114185;28;20436;-58
2023/06/08 06:43:34;;;;;;;0.53;0.53;;;;;;;22.63;73.62;95272.94;5114182;28;20464;-59
2023/06/08 06:46:02;;;;;;;0.80;0.60;;;;;;;23.28;73.36;95263.34;5114019;28;20451;-59
2023/06/08 06:48:32;;;;;;;1.17;1.17;;;;;;;23.52;72.25;95256.19;5113529;28;20501;-66
2023/06/08 06:51:00;;;;;;;0.70;0.57;;;;;;;23.70;71.29;95265.50;5113920;28;20475;-66
2023/06/08 06:53:29;;;;;;;1.47;1.37;;;;;;;23.63;69.81;95260.69;5113702;28;20440;-67
2023/06/08 06:55:59;;;;;;;0.70;0.70;;;;;;;23.69;69.03;95256.59;5114192;28;20587;-64
2023/06/08 06:58:28;;;;;;;0.80;0.80;;;;;;;24.22;68.39;95262.34;5113425;28;20436;-63
2023/06/08 07:00:57;;;;;;;0.80;0.80;;;;;;;24.35;67.66;95255.66;5114406;28;20500;-63
2023/06/08 07:03:27;;;;;;;0.77;0.70;;;;;;;24.52;66.17;95260.63;5113356;28;20436;-63
2023/06/08 07:05:58;;;;;;;1.57;0.70;;;;;;;24.47;65.51;95264.41;5113928;28;20447;-63
2023/06/08 07:08:28;;;;;;;3.07;0.63;;;;;;;24.14;67.36;95249.78;5114077;28;20440;-64
2023/06/08 07:10:57;;;;;;;0.90;0.50;;;;;;;24.42;64.01;95250.34;5113583;28;20444;-65
2023/06/08 07:13:25;;;;;;;0.50;0.50;;;;;;;24.76;64.63;95251.38;5113179;28;20443;-65
2023/06/08 07:15:54;;;;;;;0.70;0.40;;;;;;;25.33;62.89;95228.69;5113178;28;21011;-65
2023/06/08 07:18:22;;;;;;;0.60;0.40;;;;;;;25.57;61.62;95239.19;5113216;28;20444;-65
2023/06/08 07:20:51;;;;;;;0.70;0.40;;;;;;;25.67;62.07;95235.84;5113444;28;20482;-66
2023/06/08 07:23:21;;;;;;;1.80;1.70;;;;;;;25.49;60.66;95248.38;5087504;28;20438;-66
2023/06/08 07:26:10;;;;;;;1.20;1.10;;;;;;;25.58;59.66;95235.31;5113518;28;20436;-66
2023/06/08 07:28:58;;;;;;;0.60;0.60;;;;;;;25.57;61.87;95236.47;5112728;28;21006;-62
2023/06/08 07:31:27;;;;;;;0.60;0.60;;;;;;;26.14;59.47;95230.66;5087309;28;20499;-66
2023/06/08 07:33:56;;;;;;;0.40;0.40;;;;;;;26.77;58.24;95218.91;5112985;28;20448;-67
2023/06/08 07:36:24;;;;;;;0.57;0.53;;;;;;;26.51;57.00;95221.75;5113270;28;20450;-67
2023/06/08 07:38:56;;;;;;;0.77;0.77;;;;;;;26.66;56.06;95226.19;5113130;28;20428;-67
2023/06/08 07:41:26;;;;;;;0.63;0.63;;;;;;;26.80;56.02;95166.50;5109810;28;20543;-66
2023/06/08 07:43:55;;;;;;;0.73;0.70;;;;;;;27.33;55.15;95218.59;5109106;28;20440;-66
2023/06/08 07:46:24;;;;;;;0.40;0.40;;;;;;;26.99;54.34;95207.09;5113637;28;20436;-66
2023/06/08 07:48:52;;;;;;;0.40;0.40;;;;;;;27.62;54.25;95210.31;5113382;28;20439;-66
2023/06/08 07:51:21;;;;;;;0.50;0.40;;;;;;;27.65;52.76;95209.50;5134572;28;20444;-66
2023/06/08 07:53:49;;;;;;;0.60;0.60;;;;;;;27.78;53.27;95206.50;5113309;28;20435;-66
2023/06/08 07:56:21;;;;;;;0.63;0.60;;;;;;;27.97;53.86;95196.06;5112806;28;20869;-66
2023/06/08 07:58:49;;;;;;;0.60;0.50;;;;;;;27.58;53.57;95203.25;5112958;28;20510;-66
2023/06/08 08:01:19;;;;;;;0.40;0.30;;;;;;;27.45;54.28;95207.47;5112889;28;20803;-66
2023/06/08 08:03:47;;;;;;;0.63;0.63;;;;;;;27.54;54.64;95197.00;5086158;28;20488;-67
2023/06/08 08:06:16;;;;;;;0.50;0.50;;;;;;;28.13;51.82;95202.00;5112418;28;20440;-66
2023/06/08 08:08:44;;;;;;;0.93;0.60;;;;;;;27.40;51.47;95205.09;5112973;28;20428;-68
2023/06/08 08:11:12;;;;;;;0.70;0.70;;;;;;;28.06;50.44;95201.19;5112360;28;20857;-68
2023/06/08 08:13:42;;;;;;;0.63;0.50;;;;;;;28.35;49.75;95191.94;5112267;28;20842;-68
2023/06/08 08:16:10;;;;;;;0.70;0.50;;;;;;;28.04;50.14;95195.34;5112274;28;20498;-68
2023/06/08 08:18:39;;;;;;;0.50;0.50;;;;;;;27.93;49.29;95197.22;5112372;28;20474;-68
2023/06/08 08:21:07;;;;;;;0.40;0.30;;;;;;;28.85;49.84;95185.44;5112441;28;20459;-67
2023/06/08 08:23:35;;;;;;;0.50;0.50;;;;;;;27.83;47.84;95170.72;5112091;28;20947;-67
2023/06/08 08:26:04;;;;;;;0.77;0.40;;;;;;;28.64;47.76;95181.94;5112088;28;20432;-67
2023/06/08 08:28:33;;;;;;;0.47;0.30;;;;;;;29.28;46.91;95182.72;5111984;28;20948;-65
2023/06/08 08:31:03;;;;;;;0.93;0.93;;;;;;;29.41;47.37;95171.00;5112108;28;20460;-66
2023/06/08 08:33:31;;;;;;;0.40;0.40;;;;;;;29.85;46.56;95167.03;5112340;28;20511;-65
2023/06/08 08:38:45;;;;;;;0.70;0.60;;;;;;;29.62;47.76;95174.88;5112195;28;20439;-65
2023/06/08 08:41:17;;;;;;;0.50;0.40;;;;;;;29.61;47.00;95165.91;5112109;28;20431;-65
2023/06/08 08:43:50;;;;;;;1.73;0.97;;;;;;;29.84;46.84;95171.72;5111760;28;20508;-65
2023/06/08 08:46:23;;;;;;;1.03;1.03;;;;;;;28.41;47.17;95170.56;5111961;28;20504;-65
2023/06/08 08:48:53;;;;;;;0.40;0.30;;;;;;;29.67;44.97;95160.81;5112294;28;20519;-66
2023/06/08 08:51:21;;;;;;;0.43;0.40;;;;;;;29.90;46.57;95166.63;5112166;28;20939;-66
2023/06/08 08:53:51;;;;;;;0.50;0.40;;;;;;;30.92;44.05;95160.59;5111930;28;20550;-65
2023/06/08 08:56:20;;;;;;;0.70;0.70;;;;;;;31.43;44.04;95152.31;5112149;28;20822;-66
2023/06/08 08:58:51;;;;;;;0.40;0.40;;;;;;;30.95;42.68;95154.31;5111888;28;20788;-66
2023/06/08 09:01:22;;;;;;;0.60;0.50;;;;;;;30.58;40.71;95151.44;5111657;28;21083;-63
2023/06/08 09:03:50;;;;;;;0.80;0.50;;;;;;;30.00;40.30;95152.13;5112205;28;20946;-67
2023/06/08 09:06:19;;;;;;;0.40;0.30;;;;;;;31.17;39.59;95146.72;5111927;28;20431;-66
2023/06/08 09:08:49;;;;;;;0.40;0.30;;;;;;;31.96;39.21;95148.25;5112173;28;20451;-68
2023/06/08 09:11:17;;;;;;;0.40;0.30;;;;;;;31.37;38.89;95142.97;5112083;28;20439;-66
2023/06/08 09:13:46;;;;;;;0.50;0.30;;;;;;;32.14;37.59;95142.56;5111995;28;20506;-68
2023/06/08 09:16:16;;;;;;;0.40;0.40;;;;;;;32.37;37.63;95146.16;5111398;28;20867;-67
2023/06/08 09:18:47;;;;;;;0.47;0.47;;;;;;;31.99;40.22;95145.50;5111820;28;20472;-68
2023/06/08 09:21:23;;;;;;;0.77;0.77;;;;;;;32.02;40.29;95113.72;5111692;28;20442;-68
2023/06/08 09:24:05;;;;;;;0.40;0.30;;;;;;;31.74;41.33;95092.13;5111963;28;20439;-69
2023/06/08 09:26:37;;;;;;;0.60;0.47;;;;;;;32.13;39.62;95135.53;5088654;28;20435;-68
2023/06/08 09:29:07;;;;;;;1.03;0.60;;;;;;;31.60;39.42;95130.66;5111309;28;20863;-69
2023/06/08 09:31:39;;;;;;;0.60;0.50;;;;;;;32.02;39.82;95138.41;5111301;28;20454;-69
2023/06/08 09:34:12;;;;;;;0.30;0.30;;;;;;;32.43;40.36;95122.59;5111631;28;20475;-69
2023/06/08 09:36:43;;;;;;;0.40;0.40;;;;;;;32.23;37.96;95094.22;5111545;28;20965;-70
2023/06/08 09:39:12;;;;;;;0.50;0.40;;;;;;;31.57;39.21;95115.03;5111444;28;20438;-70
2023/06/08 09:41:40;;;;;;;0.50;0.40;;;;;;;32.30;37.74;95107.09;5111469;28;20435;-70
2023/06/08 09:44:19;;;;;;;0.73;0.67;;;;;;;32.61;36.83;95094.91;5110982;28;20439;-71
2023/06/08 09:46:48;;;;;;;1.17;0.80;;;;;;;33.29;38.27;95094.56;5111263;28;20431;-66
2023/06/08 09:49:19;;;;;;;0.40;0.40;;;;;;;32.94;37.70;95099.44;5111001;28;20517;-71
2023/06/08 09:51:49;;;;;;;2.23;0.60;;;;;;;31.67;37.61;95111.41;5110809;28;20808;-70
2023/06/08 09:54:21;;;;;;;0.60;0.40;;;;;;;31.47;37.71;95111.22;5111623;28;20474;-71
2023/06/08 09:56:54;;;;;;;0.50;0.43;;;;;;;32.98;36.66;95097.41;5113325;28;20442;-70
2023/06/08 09:59:29;;;;;;;0.40;0.40;;;;;;;33.02;37.72;95089.09;5114561;28;20435;-71
2023/06/08 10:02:06;;;;;;;0.50;0.40;;;;;;;32.84;37.44;95088.66;5114736;28;20445;-70
2023/06/08 10:04:41;;;;;;;0.40;0.40;;;;;;;32.56;36.28;95084.41;5115792;28;20445;-70
2023/06/08 10:07:15;;;;;;;0.60;0.37;;;;;;;32.98;36.96;95077.41;5124142;28;20530;-71
2023/06/08 10:09:46;;;;;;;0.40;0.40;;;;;;;32.90;36.10;95043.03;5121879;28;20435;-74
2023/06/08 10:12:16;;;;;;;0.40;0.30;;;;;;;32.34;35.33;95070.19;5115297;28;20551;-73
2023/06/08 10:14:45;;;;;;;0.40;0.20;;;;;;;32.76;35.41;95066.03;5115283;28;20439;-73
2023/06/08 10:17:15;;;;;;;0.40;0.40;;;;;;;33.46;35.76;95055.75;5114541;28;20526;-72
2023/06/08 10:19:45;;;;;;;0.40;0.30;;;;;;;33.86;35.11;95068.31;5114333;28;20434;-72
2023/06/08 10:22:13;;;;;;;0.40;0.40;;;;;;;33.07;35.19;95053.72;5114510;28;20439;-72
2023/06/08 10:24:44;;;;;;;2.97;0.73;;;;;;;32.54;33.81;95051.09;5114811;28;20462;-72
2023/06/08 10:27:32;;;;;;;0.40;0.30;;;;;;;34.16;34.71;95039.00;5114250;28;20535;-71
2023/06/08 10:30:03;;;;;;;0.40;0.40;;;;;;;32.94;34.00;95044.50;5114408;28;20466;-72
2023/06/08 10:32:33;;;;;;;0.70;0.57;;;;;;;32.94;34.56;95044.50;5113728;28;20440;-72
2023/06/08 10:35:06;;;;;;;0.30;0.30;;;;;;;32.96;32.86;95038.63;5114025;28;20856;-72
2023/06/08 10:37:37;;;;;;;0.30;0.27;;;;;;;32.90;33.20;95030.09;5114138;28;20511;-73
2023/06/08 10:40:09;;;;;;;0.50;0.47;;;;;;;34.29;33.80;95023.38;5114331;28;20443;-73
2023/06/08 10:42:38;;;;;;;0.40;0.30;;;;;;;34.25;30.69;95028.97;5114219;28;20923;-72
2023/06/08 10:45:07;;;;;;;0.40;0.33;;;;;;;34.52;30.08;95020.47;5114620;28;20792;-70
2023/06/08 10:47:37;;;;;;;0.50;0.40;;;;;;;32.89;30.89;95006.56;5114228;28;20456;-72
2023/06/08 10:50:11;;;;;;;1.47;0.30;;;;;;;32.12;30.59;95019.59;5112792;28;20479;-72
2023/06/08 10:52:46;;;;;;;0.30;0.30;;;;;;;32.55;29.94;95015.00;5114296;28;20519;-72
2023/06/08 10:55:16;;;;;;;0.40;0.30;;;;;;;33.12;29.22;95001.06;5113625;28;20435;-72
2023/06/08 10:57:45;;;;;;;0.43;0.40;;;;;;;33.37;29.67;95006.06;5114386;28;20507;-72
2023/06/08 11:00:42;;;;;;;0.50;0.30;;;;;;;33.45;31.07;95014.94;5113521;28;20465;-72
2023/06/08 11:03:13;;;;;;;0.30;0.27;;;;;;;34.02;29.74;95001.56;5113723;28;20439;-71
2023/06/08 11:05:49;;;;;;;4.63;0.40;;;;;;;33.13;28.71;94996.34;5114108;28;20442;-73
2023/06/08 11:08:18;;;;;;;0.40;0.30;;;;;;;32.88;30.04;94976.78;5113529;28;20438;-73
2023/06/08 11:10:53;;;;;;;0.50;0.50;;;;;;;33.21;30.25;94992.28;5113784;28;20514;-73
2023/06/08 11:13:23;;;;;;;0.40;0.30;;;;;;;32.49;30.94;94989.19;5113117;28;20470;-73
2023/06/08 11:15:51;;;;;;;0.40;0.30;;;;;;;33.51;29.40;94983.81;5113614;28;20971;-73
2023/06/08 11:18:20;;;;;;;0.70;0.50;;;;;;;33.04;30.30;94982.41;5113303;28;20525;-73
2023/06/08 11:20:50;;;;;;;0.40;0.40;;;;;;;32.39;31.18;94984.66;5113740;28;20530;-71
2023/06/08 11:23:19;;;;;;;0.67;0.60;;;;;;;32.20;32.43;94977.16;5113737;28;20496;-73
2023/06/08 11:25:48;;;;;;;0.40;0.40;;;;;;;32.63;30.64;94978.03;5113192;28;20488;-72
2023/06/08 11:28:16;;;;;;;0.90;0.90;;;;;;;32.23;30.00;94981.78;5113591;28;20435;-72
2023/06/08 11:30:44;;;;;;;0.40;0.30;;;;;;;32.70;31.57;94966.13;5112627;28;20471;-74
2023/06/08 11:33:17;;;;;;;0.80;0.67;;;;;;;32.48;30.79;94970.41;5113366;28;20516;-73
2023/06/08 11:35:49;;;;;;;0.50;0.50;;;;;;;32.41;32.11;94973.28;5112674;28;20447;-73
2023/06/08 11:38:22;;;;;;;0.47;0.40;;;;;;;31.58;32.30;94977.63;5113260;28;20551;-73
2023/06/08 11:40:50;;;;;;;0.50;0.40;;;;;;;31.60;32.42;94958.06;5112537;28;20437;-73
2023/06/08 11:43:22;;;;;;;0.40;0.30;;;;;;;32.33;33.01;94964.41;5113575;28;20549;-73
2023/06/08 11:45:51;;;;;;;0.43;0.40;;;;;;;32.37;32.61;94961.59;5112860;28;20470;-72
2023/06/08 11:48:23;;;;;;;0.40;0.30;;;;;;;32.40;31.78;94958.78;5113432;28;20512;-74